Time;durP1;ratioP1;P1;durP2;ratioP2;P2;SDS_P1;SDS_P2;PMS_P1;PMS_P2;Temp;Humidity;BMP_temperature;BMP_pressure;BME280_temperature;BME280_humidity;BME280_pressure;Samples;Min_cycle;Max_cycle;Signal;HPM_P1;HPM_P2
2022/01/16 00:01:35;;;;;;;48.80;21.48;;;6.10;78.90;;;;;;6153582;22;92444;-71
2022/01/16 00:04:11;;;;;;;45.60;21.60;;;6.10;79.40;;;;;;6153214;22;92870;-71
2022/01/16 00:06:42;;;;;;;44.92;20.45;;;6.10;79.60;;;;;;6153718;22;92672;-70
2022/01/16 00:09:09;;;;;;;48.83;23.13;;;6.00;79.00;;;;;;6153701;22;92432;-70
2022/01/16 00:11:37;;;;;;;47.25;21.08;;;6.00;78.80;;;;;;6153761;22;92849;-70
2022/01/16 00:14:05;;;;;;;49.70;24.10;;;6.00;78.30;;;;;;6154244;22;98015;-71
2022/01/16 00:16:33;;;;;;;60.05;27.67;;;5.90;78.00;;;;;;6151342;22;92469;-70
2022/01/16 00:19:00;;;;;;;56.53;25.95;;;5.90;78.20;;;;;;6154450;22;92729;-70
2022/01/16 00:21:33;;;;;;;54.25;24.98;;;5.80;78.50;;;;;;6152356;22;95380;-71
2022/01/16 00:24:00;;;;;;;50.67;24.75;;;5.80;78.20;;;;;;6153880;22;95257;-71
2022/01/16 00:26:27;;;;;;;56.88;25.13;;;5.80;78.20;;;;;;6152421;22;92473;-71
2022/01/16 00:28:54;;;;;;;60.25;27.02;;;5.70;78.40;;;;;;6154039;22;92718;-70
2022/01/16 00:31:23;;;;;;;57.97;27.88;;;5.70;79.00;;;;;;6153744;22;93069;-70
2022/01/16 00:33:50;;;;;;;56.28;25.65;;;5.60;79.30;;;;;;6102524;22;94007;-70
2022/01/16 00:36:19;;;;;;;58.63;28.63;;;5.60;79.00;;;;;;6127027;22;92535;-70
2022/01/16 00:38:48;;;;;;;62.90;28.05;;;5.60;78.90;;;;;;6127361;22;91699;-70
2022/01/16 00:41:18;;;;;;;59.17;26.25;;;5.60;78.70;;;;;;6153581;22;93290;-70
2022/01/16 00:43:46;;;;;;;58.72;26.95;;;5.60;79.00;;;;;;6127424;22;94159;-70
2022/01/16 00:46:13;;;;;;;56.90;24.65;;;5.60;78.80;;;;;;6152314;22;95361;-70
2022/01/16 00:48:40;;;;;;;66.28;26.85;;;5.50;78.90;;;;;;6154263;22;92662;-71
2022/01/16 00:51:08;;;;;;;56.08;24.50;;;5.50;79.70;;;;;;6154047;22;92866;-71
2022/01/16 00:53:36;;;;;;;61.58;25.83;;;5.50;79.40;;;;;;6102393;22;92960;-70
2022/01/16 00:56:03;;;;;;;59.90;26.10;;;5.50;79.00;;;;;;6154215;22;92407;-70
2022/01/16 00:58:30;;;;;;;63.60;25.88;;;5.50;79.00;;;;;;6153998;22;92380;-71
2022/01/16 01:00:57;;;;;;;62.67;26.95;;;5.40;79.10;;;;;;6154001;22;93777;-70
2022/01/16 01:03:25;;;;;;;64.40;25.40;;;5.40;79.60;;;;;;6154109;22;92937;-71
2022/01/16 01:05:52;;;;;;;60.30;23.48;;;5.40;80.10;;;;;;6153872;22;92435;-72
2022/01/16 01:08:19;;;;;;;52.53;22.40;;;5.40;79.50;;;;;;6154041;22;92463;-71
2022/01/16 01:10:49;;;;;;;55.70;22.63;;;5.40;79.70;;;;;;6152545;22;95314;-72
2022/01/16 01:13:30;;;;;;;59.67;25.45;;;5.30;79.60;;;;;;6154042;22;95216;-71
2022/01/16 01:16:02;;;;;;;55.70;25.17;;;5.30;79.60;;;;;;6154428;22;92638;-70
2022/01/16 01:18:31;;;;;;;56.78;23.83;;;5.30;80.10;;;;;;6154130;22;92400;-70
2022/01/16 01:21:01;;;;;;;53.95;22.58;;;5.30;79.70;;;;;;6154293;22;92890;-71
2022/01/16 01:23:30;;;;;;;55.00;23.40;;;5.20;79.60;;;;;;6153482;22;92884;-71
2022/01/16 01:25:57;;;;;;;52.80;23.80;;;5.20;79.80;;;;;;6154003;22;92343;-71
2022/01/16 01:28:24;;;;;;;52.65;24.05;;;5.10;79.70;;;;;;6153490;22;91648;-71
2022/01/16 01:30:51;;;;;;;52.78;22.13;;;5.10;79.60;;;;;;6153908;22;92989;-71
2022/01/16 01:33:20;;;;;;;56.67;23.52;;;5.10;79.40;;;;;;6153553;22;93013;-71
2022/01/16 01:35:47;;;;;;;55.65;24.02;;;5.10;79.90;;;;;;6152553;22;94710;-70
2022/01/16 01:38:20;;;;;;;57.90;24.75;;;5.00;80.40;;;;;;6127203;22;92736;-70
2022/01/16 01:40:48;;;;;;;54.10;24.58;;;5.00;80.10;;;;;;6127250;22;94067;-71
2022/01/16 01:51:24;;;;;;;56.72;23.25;;;4.90;80.10;;;;;;6153837;22;93545;-70
2022/01/16 01:53:53;;;;;;;57.45;26.73;;;5.00;80.00;;;;;;6154356;22;92640;-70
2022/01/16 01:56:23;;;;;;;58.67;26.38;;;5.00;79.80;;;;;;6153689;22;92730;-70
2022/01/16 01:58:51;;;;;;;59.65;26.63;;;5.00;79.90;;;;;;6153972;22;92422;-70
2022/01/16 02:01:19;;;;;;;59.33;27.55;;;5.00;80.20;;;;;;6152210;22;95309;-70
2022/01/16 02:03:48;;;;;;;57.35;24.63;;;5.00;80.10;;;;;;6153409;22;96341;-70
2022/01/16 02:06:21;;;;;;;62.22;25.65;;;5.00;79.90;;;;;;6153846;22;92395;-70
2022/01/16 02:08:54;;;;;;;58.38;25.48;;;5.00;79.80;;;;;;6153931;22;92418;-71
2022/01/16 02:11:24;;;;;;;54.47;25.63;;;5.00;80.10;;;;;;6153659;22;94116;-70
2022/01/16 02:14:08;;;;;;;58.50;25.55;;;5.00;79.80;;;;;;6126615;22;100631;-64
2022/01/16 02:28:14;;;;;;;47.95;22.05;;;5.00;79.50;;;;;;6125544;22;94795;-65
2022/01/16 02:36:04;;;;;;;55.60;24.70;;;4.80;80.10;;;;;;6110831;22;92838;-65
2022/01/16 02:38:32;;;;;;;51.03;22.48;;;4.80;80.10;;;;;;6126396;22;92567;-64
2022/01/16 02:41:03;;;;;;;55.70;24.05;;;4.80;79.80;;;;;;6154933;22;92434;-65
2022/01/16 02:43:33;;;;;;;57.25;23.85;;;4.80;80.00;;;;;;6154601;22;93028;-65
2022/01/16 02:48:44;;;;;;;59.45;25.33;;;4.80;80.40;;;;;;6154478;22;92395;-65
2022/01/16 02:51:19;;;;;;;63.92;26.48;;;4.80;80.30;;;;;;6154798;22;92591;-64
2022/01/16 02:53:47;;;;;;;61.47;25.15;;;4.80;80.40;;;;;;6152697;22;95474;-64
2022/01/16 02:56:15;;;;;;;60.78;24.45;;;4.80;80.80;;;;;;6127109;22;97623;-64
2022/01/16 02:58:43;;;;;;;60.92;24.10;;;4.80;80.90;;;;;;6154528;22;93034;-64
2022/01/16 03:01:11;;;;;;;66.90;25.08;;;4.80;81.20;;;;;;6154590;22;92350;-64
2022/01/16 03:03:39;;;;;;;69.85;26.25;;;4.80;81.40;;;;;;6153923;22;94161;-64
2022/01/16 03:06:06;;;;;;;67.80;26.20;;;4.80;81.80;;;;;;6154421;22;92950;-65
2022/01/16 03:08:34;;;;;;;70.90;26.83;;;4.80;81.70;;;;;;6154534;22;92474;-65
2022/01/16 03:14:08;;;;;;;64.00;25.85;;;4.80;82.00;;;;;;6004238;23;93332;-65
2022/01/16 03:16:35;;;;;;;64.05;24.27;;;4.80;81.20;;;;;;6128146;22;92865;-65
2022/01/16 03:22:06;;;;;;;73.32;27.35;;;4.70;82.20;;;;;;6062805;23;92557;-64
2022/01/16 03:24:39;;;;;;;74.97;28.95;;;4.70;81.70;;;;;;6110137;22;92954;-64
2022/01/16 03:27:16;;;;;;;77.40;28.75;;;4.70;82.30;;;;;;6154340;22;92798;-64
2022/01/16 03:29:46;;;;;;;77.95;27.92;;;4.70;82.70;;;;;;6154179;22;92401;-64
2022/01/16 03:32:16;;;;;;;80.60;29.92;;;4.70;82.50;;;;;;6127846;22;92597;-65
2022/01/16 03:34:43;;;;;;;85.32;29.02;;;4.70;82.30;;;;;;6154033;22;92982;-65
2022/01/16 03:37:10;;;;;;;81.72;27.27;;;4.80;82.50;;;;;;6154047;22;106371;-65
2022/01/16 03:39:37;;;;;;;84.88;29.52;;;4.80;82.80;;;;;;6127298;22;92820;-64
2022/01/16 03:42:06;;;;;;;75.82;27.00;;;4.80;82.60;;;;;;6127916;22;92550;-64
2022/01/16 03:44:33;;;;;;;85.43;30.30;;;4.80;82.80;;;;;;6152694;22;95542;-65
2022/01/16 03:47:00;;;;;;;84.43;28.50;;;4.70;83.60;;;;;;6127111;22;96532;-65
2022/01/16 03:49:30;;;;;;;85.78;29.13;;;4.70;83.60;;;;;;6127744;22;92649;-65
2022/01/16 03:51:58;;;;;;;83.25;27.75;;;4.70;83.70;;;;;;6153676;22;92267;-65
2022/01/16 03:54:28;;;;;;;87.63;30.17;;;4.80;83.80;;;;;;6154076;22;95630;-65
2022/01/16 03:56:55;;;;;;;94.72;30.92;;;4.80;84.40;;;;;;6153914;22;92806;-64
2022/01/16 03:59:23;;;;;;;85.35;28.15;;;4.80;84.10;;;;;;6154509;22;92284;-65
2022/01/16 04:01:50;;;;;;;78.93;26.92;;;4.80;83.40;;;;;;6154342;22;91707;-64
2022/01/16 04:04:17;;;;;;;73.30;27.30;;;4.80;83.70;;;;;;6154087;22;93078;-65
2022/01/16 04:06:44;;;;;;;88.30;29.63;;;4.80;84.20;;;;;;6153682;22;92857;-65
2022/01/16 04:09:11;;;;;;;85.25;29.00;;;4.80;84.60;;;;;;6126118;22;95020;-63
2022/01/16 04:11:45;;;;;;;83.47;28.73;;;4.80;84.00;;;;;;6154073;22;92460;-63
2022/01/16 04:14:21;;;;;;;82.40;30.33;;;4.90;84.20;;;;;;6102567;22;98449;-64
2022/01/16 04:16:48;;;;;;;85.05;28.77;;;4.90;83.80;;;;;;6109124;23;94007;-67
2022/01/16 04:19:15;;;;;;;76.15;27.25;;;4.80;84.20;;;;;;6095003;23;92478;-66
2022/01/16 04:21:42;;;;;;;84.10;28.75;;;4.90;84.20;;;;;;6117292;23;92508;-66
2022/01/16 04:24:09;;;;;;;77.75;26.85;;;4.90;84.00;;;;;;6094389;23;92893;-65
2022/01/16 04:26:36;;;;;;;76.65;27.17;;;4.90;84.00;;;;;;6094719;23;92802;-66
2022/01/16 04:29:03;;;;;;;77.88;27.38;;;4.90;84.20;;;;;;6092647;23;92568;-66
2022/01/16 04:31:30;;;;;;;78.65;28.98;;;4.90;84.20;;;;;;6094453;23;92446;-66
2022/01/16 04:33:57;;;;;;;76.90;27.77;;;4.90;84.00;;;;;;6090064;23;110507;-64
2022/01/16 04:36:24;;;;;;;82.47;27.10;;;4.90;84.00;;;;;;6094155;23;95066;-64
2022/01/16 04:38:52;;;;;;;83.38;26.85;;;5.00;84.00;;;;;;6094114;23;92279;-64
2022/01/16 04:44:05;;;;;;;91.22;31.27;;;5.00;84.50;;;;;;6093998;23;93176;-64
2022/01/16 04:46:33;;;;;;;89.22;28.98;;;4.90;84.70;;;;;;6092282;23;92849;-64
2022/01/16 04:49:02;;;;;;;85.85;27.80;;;5.00;84.40;;;;;;6093757;23;92257;-63
2022/01/16 04:51:31;;;;;;;74.70;27.85;;;5.00;84.60;;;;;;6094981;23;91724;-64
2022/01/16 04:53:58;;;;;;;82.78;27.52;;;5.00;84.10;;;;;;6094002;23;92890;-64
2022/01/16 04:56:25;;;;;;;90.25;30.60;;;5.00;84.50;;;;;;6092379;23;92913;-64
2022/01/16 04:58:52;;;;;;;88.65;31.30;;;5.00;84.50;;;;;;6090675;23;94755;-64
2022/01/16 05:01:20;;;;;;;92.80;30.98;;;5.00;84.80;;;;;;6092365;23;92493;-65
2022/01/16 05:03:46;;;;;;;82.18;28.98;;;5.10;84.60;;;;;;6093006;23;110215;-64
2022/01/16 05:06:14;;;;;;;84.88;29.70;;;5.10;84.60;;;;;;6094197;23;92795;-65
2022/01/16 05:08:41;;;;;;;104.50;34.15;;;5.10;84.40;;;;;;6092611;23;92457;-64
2022/01/16 05:11:09;;;;;;;89.47;30.50;;;5.10;84.40;;;;;;6094012;23;92374;-65
2022/01/16 05:18:51;;;;;;;81.45;29.45;;;5.20;84.30;;;;;;6153822;22;92308;-65
2022/01/16 05:21:18;;;;;;;90.47;31.02;;;5.20;84.90;;;;;;6154192;22;92363;-64
2022/01/16 05:23:45;;;;;;;83.68;29.77;;;5.20;84.60;;;;;;6152149;22;99496;-70
2022/01/16 05:26:13;;;;;;;89.65;31.13;;;5.20;84.40;;;;;;6153320;22;95257;-70
2022/01/16 05:28:40;;;;;;;85.50;30.40;;;5.30;84.40;;;;;;6127020;22;92284;-70
2022/01/16 05:31:07;;;;;;;82.57;30.13;;;5.30;84.10;;;;;;6126632;22;92395;-71
2022/01/16 05:33:34;;;;;;;82.45;29.42;;;5.30;84.30;;;;;;6153719;22;93135;-70
2022/01/16 05:36:01;;;;;;;92.57;30.48;;;5.40;84.40;;;;;;6153444;22;92717;-71
2022/01/16 05:38:28;;;;;;;84.60;29.60;;;5.40;84.80;;;;;;6151848;22;92505;-71
2022/01/16 05:40:55;;;;;;;89.60;31.90;;;5.30;84.40;;;;;;6127339;22;91742;-70
2022/01/16 05:43:22;;;;;;;94.32;30.25;;;5.40;84.40;;;;;;6153749;22;92980;-70
2022/01/16 05:45:49;;;;;;;86.40;30.13;;;5.40;83.90;;;;;;6153451;22;92763;-70
2022/01/16 05:48:16;;;;;;;95.85;30.98;;;5.40;84.10;;;;;;6152389;22;94812;-70
2022/01/16 05:50:42;;;;;;;86.63;28.98;;;5.40;84.40;;;;;;6153909;22;92409;-70
2022/01/16 05:53:10;;;;;;;82.65;29.60;;;5.40;84.60;;;;;;6153292;22;93117;-71
2022/01/16 05:55:37;;;;;;;95.38;32.72;;;5.50;84.90;;;;;;6153662;22;93104;-70
2022/01/16 05:58:05;;;;;;;81.57;30.77;;;5.40;84.80;;;;;;6153331;22;92438;-70
2022/01/16 06:00:33;;;;;;;90.18;31.15;;;5.50;85.00;;;;;;6126882;22;95562;-70
2022/01/16 06:03:00;;;;;;;90.85;32.08;;;5.50;84.90;;;;;;6126660;22;92995;-70
2022/01/16 06:05:27;;;;;;;95.32;30.70;;;5.50;84.70;;;;;;6127252;22;92826;-70
2022/01/16 06:08:00;;;;;;;90.00;30.38;;;5.50;84.50;;;;;;6153265;22;92401;-70
2022/01/16 06:10:27;;;;;;;81.82;30.00;;;5.50;84.40;;;;;;6153686;22;92358;-70
2022/01/16 06:12:54;;;;;;;77.32;31.15;;;5.50;84.60;;;;;;6151365;22;96294;-70
2022/01/16 06:15:23;;;;;;;85.20;29.13;;;5.50;85.00;;;;;;6126455;22;95198;-70
2022/01/16 06:17:50;;;;;;;87.38;31.10;;;5.50;85.20;;;;;;6153199;22;92628;-70
2022/01/16 06:20:17;;;;;;;88.45;32.10;;;5.50;85.20;;;;;;6153489;22;92721;-69
2022/01/16 06:22:45;;;;;;;87.30;31.17;;;5.50;84.90;;;;;;6127050;22;92973;-69
2022/01/16 06:25:13;;;;;;;85.53;31.92;;;5.60;85.10;;;;;;6126157;22;94140;-69
2022/01/16 06:27:40;;;;;;;85.97;31.00;;;5.60;84.90;;;;;;6153521;22;92354;-69
2022/01/16 06:30:10;;;;;;;91.60;32.72;;;5.60;84.90;;;;;;6153678;22;91600;-70
2022/01/16 06:32:38;;;;;;;90.47;32.75;;;5.60;85.00;;;;;;6153532;22;93227;-69
2022/01/16 06:35:06;;;;;;;84.38;31.15;;;5.60;84.70;;;;;;6124990;22;110945;-69
2022/01/16 06:37:33;;;;;;;84.75;31.75;;;5.60;84.80;;;;;;6124932;22;94802;-69
2022/01/16 06:40:01;;;;;;;90.80;33.78;;;5.60;85.10;;;;;;6126197;22;92441;-70
2022/01/16 06:42:28;;;;;;;85.93;31.95;;;5.60;85.10;;;;;;6153407;22;93540;-69
2022/01/16 06:44:55;;;;;;;76.05;28.63;;;5.60;84.90;;;;;;6153299;22;92997;-70
2022/01/16 06:47:22;;;;;;;86.53;32.13;;;5.60;85.10;;;;;;6151406;22;92430;-70
2022/01/16 06:49:49;;;;;;;96.45;35.47;;;5.60;85.00;;;;;;6153274;22;92388;-70
2022/01/16 06:52:16;;;;;;;87.45;32.53;;;5.70;85.40;;;;;;6126194;22;95791;-70
2022/01/16 06:54:43;;;;;;;87.10;30.42;;;5.70;85.00;;;;;;6153808;22;92768;-72
2022/01/16 06:57:10;;;;;;;90.30;31.33;;;5.70;85.20;;;;;;6153131;22;92303;-70
2022/01/16 06:59:38;;;;;;;101.00;34.45;;;5.70;86.10;;;;;;6126694;22;92550;-70
2022/01/16 07:02:06;;;;;;;92.93;34.22;;;5.70;85.10;;;;;;6151452;22;95348;-69
2022/01/16 07:04:33;;;;;;;86.13;31.30;;;5.70;85.10;;;;;;6153184;22;95252;-69
2022/01/16 07:07:01;;;;;;;88.40;30.50;;;5.70;85.20;;;;;;6126420;22;92469;-69
2022/01/16 07:09:28;;;;;;;91.90;32.53;;;5.70;85.20;;;;;;6153593;22;92343;-69
2022/01/16 07:11:55;;;;;;;87.68;33.60;;;5.70;85.40;;;;;;6152551;22;108022;-69
2022/01/16 07:14:22;;;;;;;94.05;33.28;;;5.80;84.80;;;;;;6152763;22;92756;-69
2022/01/16 07:16:49;;;;;;;86.82;31.38;;;5.80;85.70;;;;;;6152698;22;92401;-69
2022/01/16 07:19:16;;;;;;;96.13;31.98;;;5.80;85.10;;;;;;6153239;22;91841;-69
2022/01/16 07:21:43;;;;;;;101.20;35.45;;;5.80;84.90;;;;;;6153069;22;92954;-69
2022/01/16 07:24:15;;;;;;;95.60;32.63;;;5.80;85.20;;;;;;6125449;22;94142;-69
2022/01/16 07:26:43;;;;;;;88.30;32.25;;;5.80;85.30;;;;;;6153163;22;95035;-69
2022/01/16 07:29:11;;;;;;;93.28;33.28;;;5.80;85.40;;;;;;6127126;22;92373;-69
2022/01/16 07:31:40;;;;;;;103.90;33.22;;;5.90;85.20;;;;;;6127323;22;94117;-70
2022/01/16 07:34:08;;;;;;;91.15;31.02;;;5.90;85.40;;;;;;6154036;22;92914;-69
2022/01/16 07:36:35;;;;;;;95.10;33.22;;;5.90;85.50;;;;;;6127969;22;92485;-69
2022/01/16 07:39:03;;;;;;;95.15;34.35;;;5.90;85.30;;;;;;6154605;22;92527;-69
2022/01/16 07:41:30;;;;;;;95.85;33.63;;;5.90;85.40;;;;;;6126869;22;95525;-69
2022/01/16 07:43:57;;;;;;;92.57;33.15;;;5.90;85.40;;;;;;6154635;22;93878;-70
2022/01/16 07:46:24;;;;;;;104.57;36.13;;;5.90;85.00;;;;;;6154127;22;92765;-70
2022/01/16 07:48:51;;;;;;;101.05;35.78;;;5.90;85.50;;;;;;6126937;22;101138;-70
2022/01/16 07:51:18;;;;;;;98.65;33.20;;;6.00;85.20;;;;;;6152328;22;95260;-70
2022/01/16 07:53:45;;;;;;;89.20;32.72;;;6.00;85.40;;;;;;6127166;22;96293;-69
2022/01/16 07:56:12;;;;;;;89.60;31.30;;;6.00;85.20;;;;;;6153982;22;92449;-69
2022/01/16 07:58:41;;;;;;;93.20;34.10;;;6.00;85.30;;;;;;6152732;22;92499;-69
2022/01/16 08:01:09;;;;;;;91.57;32.03;;;6.10;85.30;;;;;;6153843;22;94039;-69
2022/01/16 08:03:36;;;;;;;87.95;33.72;;;6.10;85.30;;;;;;6127139;22;95766;-69
2022/01/16 08:06:03;;;;;;;95.07;34.28;;;6.10;85.20;;;;;;6127383;22;92381;-69
2022/01/16 08:08:30;;;;;;;99.85;33.38;;;6.20;85.00;;;;;;6128126;22;92650;-69
2022/01/16 08:10:57;;;;;;;97.68;35.70;;;6.10;84.80;;;;;;6152174;22;94130;-70
2022/01/16 08:13:24;;;;;;;88.80;32.22;;;6.20;84.80;;;;;;6153839;22;92917;-69
2022/01/16 08:15:51;;;;;;;91.43;33.55;;;6.20;84.80;;;;;;6152138;22;94728;-69
2022/01/16 08:18:18;;;;;;;87.78;32.33;;;6.20;84.80;;;;;;6127489;22;92418;-69
2022/01/16 08:20:45;;;;;;;99.55;33.88;;;6.20;84.90;;;;;;6153964;22;93960;-69
2022/01/16 08:23:12;;;;;;;96.65;33.85;;;6.20;84.90;;;;;;6153386;22;108041;-69
2022/01/16 08:25:39;;;;;;;89.07;32.70;;;6.30;84.80;;;;;;6154268;22;92450;-69
2022/01/16 08:28:06;;;;;;;97.38;36.72;;;6.30;85.00;;;;;;6154447;22;92694;-70
2022/01/16 08:30:33;;;;;;;86.70;34.03;;;6.30;85.00;;;;;;6153711;22;92961;-70
2022/01/16 08:33:00;;;;;;;91.53;34.30;;;6.40;84.80;;;;;;6154262;22;95454;-70
2022/01/16 08:35:27;;;;;;;94.75;35.58;;;6.40;84.90;;;;;;6153879;22;92415;-69
2022/01/16 08:37:54;;;;;;;88.47;35.03;;;6.40;84.60;;;;;;6154084;22;92916;-70
2022/01/16 08:40:21;;;;;;;94.72;36.30;;;6.50;85.00;;;;;;6125636;22;95385;-69
2022/01/16 08:42:48;;;;;;;83.28;31.70;;;6.50;84.80;;;;;;6127379;22;95280;-69
2022/01/16 08:45:16;;;;;;;94.10;35.30;;;6.60;84.80;;;;;;6154288;22;92420;-69
2022/01/16 08:47:43;;;;;;;90.00;33.90;;;6.60;84.60;;;;;;6154253;22;92434;-70
2022/01/16 08:50:11;;;;;;;88.32;34.10;;;6.70;84.70;;;;;;6153880;22;93057;-70
2022/01/16 08:52:39;;;;;;;91.28;32.58;;;6.70;84.60;;;;;;6127014;22;92872;-70
2022/01/16 08:55:08;;;;;;;83.40;31.80;;;6.70;84.70;;;;;;6154160;22;92396;-73
2022/01/16 08:57:36;;;;;;;90.72;33.88;;;6.80;84.40;;;;;;6154370;22;91697;-72
2022/01/16 09:00:05;;;;;;;88.38;33.45;;;6.80;84.40;;;;;;6153870;22;96414;-70
2022/01/16 09:02:32;;;;;;;87.00;35.00;;;6.80;84.20;;;;;;6153701;22;92864;-70
2022/01/16 09:04:59;;;;;;;90.30;34.40;;;6.90;84.00;;;;;;6152507;22;94835;-71
2022/01/16 09:07:26;;;;;;;82.15;31.73;;;6.90;84.10;;;;;;6153670;22;92384;-69
2022/01/16 09:09:53;;;;;;;78.13;32.88;;;7.00;83.90;;;;;;6126774;22;95623;-69
2022/01/16 09:12:20;;;;;;;86.18;33.33;;;7.00;84.20;;;;;;6153558;22;92811;-69
2022/01/16 09:14:47;;;;;;;83.95;33.95;;;7.00;83.90;;;;;;6153991;22;92434;-69
2022/01/16 09:17:14;;;;;;;81.18;34.13;;;7.10;83.60;;;;;;6153478;22;92474;-69
2022/01/16 09:19:42;;;;;;;79.28;31.92;;;7.10;83.70;;;;;;6153455;22;93320;-69
2022/01/16 09:22:09;;;;;;;83.93;33.60;;;7.10;83.60;;;;;;6127268;22;95394;-69
2022/01/16 09:24:36;;;;;;;83.38;32.47;;;7.20;83.50;;;;;;6153224;22;99309;-69
2022/01/16 09:27:03;;;;;;;72.50;33.20;;;7.20;83.70;;;;;;6153840;22;92438;-69
2022/01/16 09:29:30;;;;;;;80.45;33.28;;;7.30;83.40;;;;;;6151894;22;95297;-69
2022/01/16 09:31:57;;;;;;;81.05;36.08;;;7.30;83.50;;;;;;6126815;22;96644;-69
2022/01/16 09:34:24;;;;;;;82.03;33.92;;;7.30;83.40;;;;;;6153797;22;92367;-69
2022/01/16 09:36:51;;;;;;;76.75;33.92;;;7.30;83.50;;;;;;6153895;22;92390;-71
2022/01/16 09:39:18;;;;;;;75.03;31.50;;;7.30;83.40;;;;;;6153707;22;92986;-70
2022/01/16 09:41:45;;;;;;;79.35;34.35;;;7.40;83.30;;;;;;6126583;22;93990;-70
2022/01/16 09:44:13;;;;;;;72.00;31.67;;;7.50;83.30;;;;;;6153923;22;92292;-71
2022/01/16 09:46:40;;;;;;;71.32;32.13;;;7.50;83.10;;;;;;6153845;22;91659;-70
2022/01/16 09:49:06;;;;;;;72.45;30.00;;;7.60;83.20;;;;;;6153128;22;93124;-71
2022/01/16 09:51:34;;;;;;;63.70;32.45;;;7.70;82.90;;;;;;6153456;22;92903;-70
2022/01/16 09:54:01;;;;;;;69.47;32.60;;;7.70;83.10;;;;;;6152413;22;94709;-70
2022/01/16 09:56:28;;;;;;;63.92;32.08;;;7.80;82.80;;;;;;6153403;22;92419;-70
2022/01/16 09:58:54;;;;;;;65.45;31.08;;;7.80;83.00;;;;;;6153771;22;92760;-70
2022/01/16 10:01:21;;;;;;;59.20;30.00;;;7.90;82.70;;;;;;6127051;22;92885;-70
2022/01/16 10:03:49;;;;;;;63.35;31.55;;;7.90;82.50;;;;;;6153544;22;92375;-70
2022/01/16 10:06:20;;;;;;;60.40;30.45;;;8.00;82.40;;;;;;6153594;22;92393;-70
2022/01/16 10:08:50;;;;;;;64.85;29.98;;;8.10;82.20;;;;;;6153170;22;93573;-70
2022/01/16 10:11:41;;;;;;;57.78;28.83;;;8.10;82.20;;;;;;6126734;22;95502;-70
2022/01/16 10:14:36;;;;;;;58.15;28.65;;;8.10;82.20;;;;;;6153659;22;92611;-71
2022/01/16 10:17:11;;;;;;;62.03;29.45;;;8.20;82.10;;;;;;6153099;22;92480;-70
2022/01/16 10:19:38;;;;;;;59.95;29.25;;;8.20;82.30;;;;;;6151775;22;95383;-70
2022/01/16 10:22:15;;;;;;;59.35;31.00;;;8.20;82.30;;;;;;6153467;22;95301;-70
2022/01/16 10:24:42;;;;;;;56.55;29.45;;;8.20;82.10;;;;;;6127012;22;92377;-70
2022/01/16 10:27:12;;;;;;;49.58;26.50;;;8.30;82.20;;;;;;6153609;22;92370;-70
2022/01/16 10:29:51;;;;;;;54.42;28.33;;;8.30;82.00;;;;;;6153292;22;93652;-70
2022/01/16 10:32:25;;;;;;;55.15;28.85;;;8.30;81.90;;;;;;6153419;22;92737;-70
2022/01/16 10:34:54;;;;;;;48.97;28.20;;;8.40;81.80;;;;;;6153354;22;92288;-70
2022/01/16 10:37:30;;;;;;;51.67;27.38;;;8.40;81.90;;;;;;6127021;22;92188;-71
2022/01/16 10:40:07;;;;;;;50.35;26.48;;;8.50;82.00;;;;;;6153384;22;93135;-65
2022/01/16 10:42:34;;;;;;;49.58;26.30;;;8.50;81.70;;;;;;6153063;22;92804;-65
2022/01/16 10:45:10;;;;;;;49.33;27.20;;;8.50;81.70;;;;;;6152190;22;94852;-65
2022/01/16 10:47:41;;;;;;;48.22;26.73;;;8.60;81.70;;;;;;6153210;22;92293;-64
2022/01/16 10:50:17;;;;;;;45.15;25.48;;;8.60;81.80;;;;;;6153165;22;92947;-65
2022/01/16 10:52:53;;;;;;;42.90;25.67;;;8.60;81.80;;;;;;6153095;22;95435;-65
2022/01/16 10:55:24;;;;;;;46.13;23.40;;;8.70;81.60;;;;;;6153541;22;92423;-65
2022/01/16 10:58:20;;;;;;;43.90;24.70;;;8.60;81.90;;;;;;6153409;22;92417;-65
2022/01/16 11:00:59;;;;;;;39.72;23.73;;;8.70;81.80;;;;;;6127444;22;93147;-65
2022/01/16 11:03:29;;;;;;;40.17;21.85;;;8.70;81.50;;;;;;6155016;22;94080;-65
2022/01/16 11:05:56;;;;;;;43.13;23.50;;;8.70;81.60;;;;;;6154354;22;92340;-65
2022/01/16 11:08:26;;;;;;;40.55;23.67;;;8.70;82.00;;;;;;6154567;22;92367;-65
2022/01/16 11:10:58;;;;;;;43.45;24.05;;;8.70;82.00;;;;;;6125549;22;95546;-65
2022/01/16 11:13:29;;;;;;;40.20;24.13;;;8.70;82.10;;;;;;6154378;22;95083;-65
2022/01/16 11:16:05;;;;;;;44.03;24.88;;;8.80;81.80;;;;;;6154339;22;92372;-65
2022/01/16 11:18:38;;;;;;;39.00;22.23;;;8.80;81.60;;;;;;6094986;23;92406;-70
2022/01/16 11:26:22;;;;;;;38.35;21.88;;;8.90;81.10;;;;;;6095075;23;92366;-70
2022/01/16 11:28:52;;;;;;;32.95;20.20;;;8.90;80.70;;;;;;6095041;23;91685;-71
2022/01/16 11:31:18;;;;;;;38.50;21.27;;;9.00;80.80;;;;;;6092852;23;94269;-71
2022/01/16 11:33:46;;;;;;;39.30;21.10;;;8.90;80.80;;;;;;6092791;23;93919;-71
2022/01/16 11:36:16;;;;;;;35.80;22.30;;;8.90;80.70;;;;;;6093357;23;94808;-70
2022/01/16 11:38:51;;;;;;;34.95;21.02;;;9.00;80.60;;;;;;6093001;23;92535;-71
2022/01/16 11:41:31;;;;;;;36.05;20.02;;;9.00;80.40;;;;;;6093294;23;94580;-70
2022/01/16 11:44:00;;;;;;;37.05;19.88;;;8.90;80.70;;;;;;6094805;23;92805;-70
2022/01/16 11:46:32;;;;;;;34.75;18.17;;;8.90;80.50;;;;;;6094983;23;92409;-70
2022/01/16 11:48:59;;;;;;;34.35;19.70;;;8.90;80.20;;;;;;6094378;23;92347;-71
2022/01/16 11:51:36;;;;;;;31.67;18.67;;;8.90;80.50;;;;;;6094324;23;93159;-71
2022/01/16 11:54:21;;;;;;;33.17;19.15;;;9.00;80.20;;;;;;6094466;23;92793;-71
2022/01/16 11:56:51;;;;;;;31.30;16.45;;;9.00;80.10;;;;;;6094529;23;92415;-71
2022/01/16 11:59:42;;;;;;;28.45;18.00;;;9.00;80.10;;;;;;6094910;23;92341;-71
2022/01/16 12:02:09;;;;;;;28.02;17.55;;;9.00;80.40;;;;;;6093113;23;95465;-65
2022/01/16 12:04:36;;;;;;;27.88;16.58;;;9.00;80.10;;;;;;6094470;23;95279;-66
2022/01/16 12:07:19;;;;;;;27.75;16.17;;;9.00;80.30;;;;;;6094466;23;92317;-66
2022/01/16 12:09:51;;;;;;;30.67;15.05;;;9.00;79.70;;;;;;6094006;23;92451;-66
2022/01/16 12:12:18;;;;;;;26.15;14.88;;;8.90;79.90;;;;;;6094064;23;92876;-65
2022/01/16 12:14:55;;;;;;;28.75;15.32;;;9.00;80.10;;;;;;6094222;23;92784;-65
2022/01/16 12:17:26;;;;;;;29.20;15.35;;;9.10;79.80;;;;;;6127853;22;92491;-66
2022/01/16 12:20:17;;;;;;;31.02;15.63;;;9.00;79.80;;;;;;6154774;22;91671;-66
2022/01/16 12:22:48;;;;;;;26.33;14.32;;;9.00;79.60;;;;;;6127767;22;94141;-65
2022/01/16 12:25:32;;;;;;;27.45;15.18;;;9.00;79.80;;;;;;6154317;22;92375;-66
2022/01/16 12:28:04;;;;;;;26.20;14.65;;;9.00;79.70;;;;;;6152699;22;94825;-65
2022/01/16 12:30:51;;;;;;;23.98;14.20;;;9.00;80.20;;;;;;6154309;22;92542;-65
2022/01/16 12:33:23;;;;;;;24.42;14.38;;;9.10;80.10;;;;;;6154202;22;93116;-66
2022/01/16 12:35:50;;;;;;;23.45;14.27;;;9.10;79.90;;;;;;6153791;22;92809;-65
2022/01/16 12:38:23;;;;;;;22.23;13.02;;;9.10;79.80;;;;;;6154326;22;92430;-71
2022/01/16 12:41:07;;;;;;;21.20;14.25;;;9.10;79.80;;;;;;6154069;22;92467;-71
2022/01/16 12:43:46;;;;;;;25.23;12.90;;;9.10;79.60;;;;;;6154136;22;93097;-71
2022/01/16 12:46:19;;;;;;;21.65;12.90;;;9.10;79.60;;;;;;6154470;22;93720;-71
2022/01/16 12:48:51;;;;;;;23.47;13.17;;;9.10;79.60;;;;;;6154357;22;92398;-72
2022/01/16 12:51:26;;;;;;;23.70;12.90;;;9.10;79.80;;;;;;6154573;22;92347;-71
2022/01/16 12:54:11;;;;;;;21.70;12.65;;;9.10;79.30;;;;;;6125676;22;96463;-71
2022/01/16 12:56:48;;;;;;;18.52;12.10;;;9.20;79.20;;;;;;6154068;22;95195;-71
2022/01/16 12:59:36;;;;;;;17.02;11.10;;;9.10;79.10;;;;;;6132240;22;92329;-71
2022/01/16 13:02:06;;;;;;;22.92;11.43;;;9.10;79.00;;;;;;6154178;22;92459;-71
2022/01/16 13:04:41;;;;;;;21.75;10.50;;;9.10;79.20;;;;;;6154103;22;92914;-71
2022/01/16 13:07:28;;;;;;;19.92;11.63;;;9.10;78.70;;;;;;6153748;22;93028;-71
2022/01/16 13:09:56;;;;;;;17.30;10.50;;;9.10;79.00;;;;;;6153883;22;92254;-71
2022/01/16 13:12:25;;;;;;;17.83;10.30;;;9.10;79.00;;;;;;6154678;22;91686;-71
2022/01/16 13:14:52;;;;;;;17.52;10.07;;;9.10;78.80;;;;;;6154003;22;92968;-71
2022/01/16 13:17:19;;;;;;;21.27;11.02;;;9.10;79.10;;;;;;6153813;22;92807;-70
2022/01/16 13:19:53;;;;;;;16.48;10.43;;;9.10;79.00;;;;;;6153185;22;95160;-71
2022/01/16 13:22:24;;;;;;;20.77;11.75;;;9.10;78.70;;;;;;6154249;22;92293;-71
2022/01/16 13:24:52;;;;;;;18.63;10.23;;;9.20;78.80;;;;;;6154155;22;93188;-70
2022/01/16 13:27:25;;;;;;;22.40;10.82;;;9.10;78.70;;;;;;6154346;22;92882;-71
2022/01/16 13:29:56;;;;;;;18.88;9.35;;;9.20;78.80;;;;;;6154719;22;92385;-70
2022/01/16 13:32:29;;;;;;;15.13;9.98;;;9.10;78.50;;;;;;6155377;22;92388;-70
2022/01/16 13:35:02;;;;;;;12.85;8.88;;;9.20;78.30;;;;;;6154144;22;93080;-71